sensor_id;sensor_type;location;lat;lon;timestamp;P1;durP1;ratioP1;P2;durP2;ratioP2
7205;SDS011;3644;53.480;10.004;2023-05-19T00:01:43;3.70;;;2.90;;
7205;SDS011;3644;53.480;10.004;2023-05-19T00:04:09;6.33;;;2.80;;
7205;SDS011;3644;53.480;10.004;2023-05-19T00:06:36;10.40;;;2.73;;
7205;SDS011;3644;53.480;10.004;2023-05-19T00:09:05;7.70;;;2.70;;
7205;SDS011;3644;53.480;10.004;2023-05-19T00:11:32;4.27;;;2.50;;
7205;SDS011;3644;53.480;10.004;2023-05-19T00:14:02;4.50;;;2.80;;
7205;SDS011;3644;53.480;10.004;2023-05-19T00:16:29;3.77;;;2.67;;
7205;SDS011;3644;53.480;10.004;2023-05-19T00:18:59;7.57;;;2.67;;
7205;SDS011;3644;53.480;10.004;2023-05-19T00:21:26;6.20;;;3.83;;
7205;SDS011;3644;53.480;10.004;2023-05-19T00:23:52;5.30;;;3.00;;
7205;SDS011;3644;53.480;10.004;2023-05-19T00:26:18;7.40;;;2.77;;
7205;SDS011;3644;53.480;10.004;2023-05-19T00:28:45;8.60;;;3.00;;
7205;SDS011;3644;53.480;10.004;2023-05-19T00:31:11;4.97;;;3.70;;
7205;SDS011;3644;53.480;10.004;2023-05-19T00:33:36;6.30;;;3.30;;
7205;SDS011;3644;53.480;10.004;2023-05-19T00:36:02;3.43;;;2.60;;
7205;SDS011;3644;53.480;10.004;2023-05-19T00:38:31;4.47;;;3.37;;
7205;SDS011;3644;53.480;10.004;2023-05-19T00:40:59;4.50;;;3.30;;
7205;SDS011;3644;53.480;10.004;2023-05-19T00:43:25;8.43;;;3.43;;
7205;SDS011;3644;53.480;10.004;2023-05-19T00:45:50;8.90;;;3.93;;
7205;SDS011;3644;53.480;10.004;2023-05-19T00:48:16;10.93;;;2.90;;
7205;SDS011;3644;53.480;10.004;2023-05-19T00:50:42;5.70;;;3.20;;
7205;SDS011;3644;53.480;10.004;2023-05-19T00:53:08;8.27;;;3.37;;
7205;SDS011;3644;53.480;10.004;2023-05-19T00:55:34;5.63;;;2.60;;
7205;SDS011;3644;53.480;10.004;2023-05-19T00:58:02;6.33;;;2.97;;
7205;SDS011;3644;53.480;10.004;2023-05-19T01:00:29;12.53;;;3.37;;
7205;SDS011;3644;53.480;10.004;2023-05-19T01:02:55;5.73;;;3.30;;
7205;SDS011;3644;53.480;10.004;2023-05-19T01:05:21;4.93;;;2.80;;
7205;SDS011;3644;53.480;10.004;2023-05-19T01:07:46;4.27;;;2.83;;
7205;SDS011;3644;53.480;10.004;2023-05-19T01:10:17;8.33;;;3.20;;
7205;SDS011;3644;53.480;10.004;2023-05-19T01:12:43;11.83;;;3.50;;
7205;SDS011;3644;53.480;10.004;2023-05-19T01:15:09;10.10;;;2.93;;
7205;SDS011;3644;53.480;10.004;2023-05-19T01:17:38;12.03;;;3.80;;
7205;SDS011;3644;53.480;10.004;2023-05-19T01:20:21;11.90;;;3.83;;
7205;SDS011;3644;53.480;10.004;2023-05-19T01:30:52;11.80;;;4.30;;
7205;SDS011;3644;53.480;10.004;2023-05-19T01:33:20;13.07;;;3.17;;
7205;SDS011;3644;53.480;10.004;2023-05-19T01:35:47;4.50;;;2.87;;
7205;SDS011;3644;53.480;10.004;2023-05-19T01:38:14;6.30;;;3.07;;
7205;SDS011;3644;53.480;10.004;2023-05-19T01:40:42;7.30;;;2.80;;
7205;SDS011;3644;53.480;10.004;2023-05-19T01:43:13;6.20;;;2.30;;
7205;SDS011;3644;53.480;10.004;2023-05-19T01:45:41;6.40;;;3.67;;
7205;SDS011;3644;53.480;10.004;2023-05-19T01:48:07;12.83;;;4.40;;
7205;SDS011;3644;53.480;10.004;2023-05-19T01:50:33;6.43;;;3.17;;
7205;SDS011;3644;53.480;10.004;2023-05-19T01:52:59;4.00;;;2.47;;
7205;SDS011;3644;53.480;10.004;2023-05-19T01:55:25;12.70;;;3.10;;
7205;SDS011;3644;53.480;10.004;2023-05-19T02:03:28;5.30;;;3.13;;
7205;SDS011;3644;53.480;10.004;2023-05-19T02:14:28;8.03;;;2.90;;
7205;SDS011;3644;53.480;10.004;2023-05-19T02:16:57;8.40;;;3.30;;
7205;SDS011;3644;53.480;10.004;2023-05-19T02:19:24;6.00;;;3.43;;
7205;SDS011;3644;53.480;10.004;2023-05-19T02:21:57;4.13;;;2.77;;
7205;SDS011;3644;53.480;10.004;2023-05-19T02:24:23;9.53;;;3.33;;
7205;SDS011;3644;53.480;10.004;2023-05-19T02:26:49;10.70;;;3.30;;
7205;SDS011;3644;53.480;10.004;2023-05-19T02:29:16;15.23;;;2.90;;
7205;SDS011;3644;53.480;10.004;2023-05-19T02:31:41;6.53;;;3.37;;
7205;SDS011;3644;53.480;10.004;2023-05-19T02:34:07;5.73;;;2.60;;
7205;SDS011;3644;53.480;10.004;2023-05-19T02:36:33;5.93;;;3.13;;
7205;SDS011;3644;53.480;10.004;2023-05-19T02:39:00;6.13;;;3.20;;
7205;SDS011;3644;53.480;10.004;2023-05-19T02:41:29;8.83;;;3.87;;
7205;SDS011;3644;53.480;10.004;2023-05-19T02:43:55;6.50;;;3.40;;
7205;SDS011;3644;53.480;10.004;2023-05-19T02:46:21;6.77;;;2.80;;
7205;SDS011;3644;53.480;10.004;2023-05-19T02:48:47;6.10;;;2.80;;
7205;SDS011;3644;53.480;10.004;2023-05-19T02:51:13;5.87;;;3.10;;
7205;SDS011;3644;53.480;10.004;2023-05-19T02:53:38;3.33;;;2.73;;
7205;SDS011;3644;53.480;10.004;2023-05-19T02:56:04;4.73;;;3.20;;
7205;SDS011;3644;53.480;10.004;2023-05-19T02:58:30;4.30;;;3.83;;
7205;SDS011;3644;53.480;10.004;2023-05-19T03:00:55;13.77;;;3.37;;
7205;SDS011;3644;53.480;10.004;2023-05-19T03:03:21;14.43;;;4.37;;
7205;SDS011;3644;53.480;10.004;2023-05-19T03:05:46;4.67;;;2.60;;
7205;SDS011;3644;53.480;10.004;2023-05-19T03:08:12;5.03;;;3.00;;
7205;SDS011;3644;53.480;10.004;2023-05-19T03:10:38;8.10;;;3.50;;
7205;SDS011;3644;53.480;10.004;2023-05-19T03:13:03;8.40;;;3.93;;
7205;SDS011;3644;53.480;10.004;2023-05-19T03:15:29;16.50;;;4.50;;
7205;SDS011;3644;53.480;10.004;2023-05-19T03:17:55;7.23;;;2.93;;
7205;SDS011;3644;53.480;10.004;2023-05-19T03:20:20;9.37;;;3.67;;
7205;SDS011;3644;53.480;10.004;2023-05-19T03:22:46;8.20;;;3.33;;
7205;SDS011;3644;53.480;10.004;2023-05-19T03:25:12;8.63;;;3.63;;
7205;SDS011;3644;53.480;10.004;2023-05-19T03:27:37;11.90;;;4.10;;
7205;SDS011;3644;53.480;10.004;2023-05-19T03:30:03;10.10;;;4.30;;
7205;SDS011;3644;53.480;10.004;2023-05-19T03:32:29;12.90;;;3.77;;
7205;SDS011;3644;53.480;10.004;2023-05-19T03:34:56;8.00;;;3.77;;
7205;SDS011;3644;53.480;10.004;2023-05-19T03:37:22;7.93;;;3.57;;
7205;SDS011;3644;53.480;10.004;2023-05-19T03:39:48;7.20;;;4.00;;
7205;SDS011;3644;53.480;10.004;2023-05-19T03:42:13;15.43;;;4.73;;
7205;SDS011;3644;53.480;10.004;2023-05-19T03:44:39;4.27;;;3.40;;
7205;SDS011;3644;53.480;10.004;2023-05-19T03:47:04;8.13;;;3.83;;
7205;SDS011;3644;53.480;10.004;2023-05-19T03:49:30;6.57;;;4.07;;
7205;SDS011;3644;53.480;10.004;2023-05-19T03:51:55;6.70;;;3.37;;
7205;SDS011;3644;53.480;10.004;2023-05-19T03:54:22;13.73;;;3.37;;
7205;SDS011;3644;53.480;10.004;2023-05-19T03:56:47;11.60;;;3.00;;
7205;SDS011;3644;53.480;10.004;2023-05-19T03:59:13;6.60;;;3.90;;
7205;SDS011;3644;53.480;10.004;2023-05-19T04:01:40;4.80;;;2.90;;
7205;SDS011;3644;53.480;10.004;2023-05-19T04:04:05;6.90;;;3.27;;
7205;SDS011;3644;53.480;10.004;2023-05-19T04:06:31;8.73;;;3.33;;
7205;SDS011;3644;53.480;10.004;2023-05-19T04:08:57;9.30;;;3.00;;
7205;SDS011;3644;53.480;10.004;2023-05-19T04:11:23;17.03;;;3.73;;
7205;SDS011;3644;53.480;10.004;2023-05-19T04:13:49;6.60;;;3.63;;
7205;SDS011;3644;53.480;10.004;2023-05-19T04:16:15;12.93;;;3.30;;
7205;SDS011;3644;53.480;10.004;2023-05-19T04:18:40;10.30;;;3.17;;
7205;SDS011;3644;53.480;10.004;2023-05-19T04:21:06;4.93;;;3.53;;
7205;SDS011;3644;53.480;10.004;2023-05-19T04:23:32;6.47;;;3.13;;
7205;SDS011;3644;53.480;10.004;2023-05-19T04:25:58;12.73;;;3.20;;
7205;SDS011;3644;53.480;10.004;2023-05-19T04:28:25;12.43;;;3.63;;
7205;SDS011;3644;53.480;10.004;2023-05-19T04:30:51;12.20;;;3.77;;
7205;SDS011;3644;53.480;10.004;2023-05-19T04:33:16;15.23;;;5.17;;
7205;SDS011;3644;53.480;10.004;2023-05-19T04:35:43;12.57;;;4.20;;
7205;SDS011;3644;53.480;10.004;2023-05-19T04:38:09;8.23;;;3.43;;
7205;SDS011;3644;53.480;10.004;2023-05-19T04:40:35;15.70;;;3.93;;
7205;SDS011;3644;53.480;10.004;2023-05-19T04:43:01;10.73;;;3.80;;
7205;SDS011;3644;53.480;10.004;2023-05-19T04:45:27;6.60;;;3.40;;
7205;SDS011;3644;53.480;10.004;2023-05-19T04:47:52;17.87;;;3.30;;
7205;SDS011;3644;53.480;10.004;2023-05-19T04:50:22;12.97;;;4.50;;
7205;SDS011;3644;53.480;10.004;2023-05-19T04:52:47;5.63;;;3.60;;
7205;SDS011;3644;53.480;10.004;2023-05-19T04:55:13;17.03;;;3.37;;
7205;SDS011;3644;53.480;10.004;2023-05-19T04:57:39;13.00;;;4.00;;
7205;SDS011;3644;53.480;10.004;2023-05-19T05:00:05;13.40;;;3.90;;
7205;SDS011;3644;53.480;10.004;2023-05-19T05:02:36;7.50;;;3.80;;
7205;SDS011;3644;53.480;10.004;2023-05-19T05:05:01;7.70;;;3.70;;
7205;SDS011;3644;53.480;10.004;2023-05-19T05:07:28;4.50;;;3.33;;
7205;SDS011;3644;53.480;10.004;2023-05-19T05:09:53;14.33;;;5.50;;
7205;SDS011;3644;53.480;10.004;2023-05-19T05:12:20;7.00;;;3.70;;
7205;SDS011;3644;53.480;10.004;2023-05-19T05:14:46;7.53;;;3.53;;
7205;SDS011;3644;53.480;10.004;2023-05-19T05:17:12;7.30;;;3.57;;
7205;SDS011;3644;53.480;10.004;2023-05-19T05:19:38;20.70;;;3.53;;
7205;SDS011;3644;53.480;10.004;2023-05-19T05:22:04;10.87;;;3.20;;
7205;SDS011;3644;53.480;10.004;2023-05-19T05:24:30;7.77;;;3.97;;
7205;SDS011;3644;53.480;10.004;2023-05-19T05:26:56;13.53;;;3.80;;
7205;SDS011;3644;53.480;10.004;2023-05-19T05:29:23;6.43;;;2.43;;
7205;SDS011;3644;53.480;10.004;2023-05-19T05:31:49;8.07;;;3.40;;
7205;SDS011;3644;53.480;10.004;2023-05-19T05:34:14;6.63;;;3.57;;
7205;SDS011;3644;53.480;10.004;2023-05-19T05:36:40;13.03;;;4.53;;
7205;SDS011;3644;53.480;10.004;2023-05-19T05:39:06;8.37;;;4.60;;
7205;SDS011;3644;53.480;10.004;2023-05-19T05:41:32;9.30;;;3.27;;
7205;SDS011;3644;53.480;10.004;2023-05-19T05:44:02;7.00;;;3.50;;
7205;SDS011;3644;53.480;10.004;2023-05-19T05:46:28;7.67;;;3.60;;
7205;SDS011;3644;53.480;10.004;2023-05-19T05:48:54;11.07;;;3.57;;
7205;SDS011;3644;53.480;10.004;2023-05-19T05:51:20;5.67;;;3.00;;
7205;SDS011;3644;53.480;10.004;2023-05-19T05:53:47;9.77;;;3.27;;
7205;SDS011;3644;53.480;10.004;2023-05-19T05:56:16;14.10;;;3.40;;
7205;SDS011;3644;53.480;10.004;2023-05-19T05:58:42;7.50;;;3.20;;
7205;SDS011;3644;53.480;10.004;2023-05-19T06:01:07;9.73;;;2.83;;
7205;SDS011;3644;53.480;10.004;2023-05-19T06:03:34;10.23;;;3.53;;
7205;SDS011;3644;53.480;10.004;2023-05-19T06:06:02;13.80;;;2.70;;
7205;SDS011;3644;53.480;10.004;2023-05-19T06:08:27;14.73;;;4.17;;
7205;SDS011;3644;53.480;10.004;2023-05-19T06:10:53;6.60;;;2.70;;
7205;SDS011;3644;53.480;10.004;2023-05-19T06:13:18;5.13;;;2.90;;
7205;SDS011;3644;53.480;10.004;2023-05-19T06:15:47;6.77;;;2.83;;
7205;SDS011;3644;53.480;10.004;2023-05-19T06:18:13;10.30;;;3.50;;
7205;SDS011;3644;53.480;10.004;2023-05-19T06:20:39;9.27;;;3.40;;
7205;SDS011;3644;53.480;10.004;2023-05-19T06:23:04;3.30;;;2.13;;
7205;SDS011;3644;53.480;10.004;2023-05-19T06:25:30;10.57;;;3.07;;
7205;SDS011;3644;53.480;10.004;2023-05-19T06:27:56;13.70;;;2.90;;
7205;SDS011;3644;53.480;10.004;2023-05-19T06:30:21;11.17;;;2.67;;
7205;SDS011;3644;53.480;10.004;2023-05-19T06:32:47;10.63;;;3.20;;
7205;SDS011;3644;53.480;10.004;2023-05-19T06:35:12;11.90;;;2.70;;
7205;SDS011;3644;53.480;10.004;2023-05-19T06:37:38;5.53;;;2.27;;
7205;SDS011;3644;53.480;10.004;2023-05-19T06:40:03;8.90;;;3.30;;
7205;SDS011;3644;53.480;10.004;2023-05-19T06:42:29;9.87;;;2.83;;
7205;SDS011;3644;53.480;10.004;2023-05-19T06:44:55;7.47;;;2.20;;
7205;SDS011;3644;53.480;10.004;2023-05-19T06:47:20;7.07;;;2.93;;
7205;SDS011;3644;53.480;10.004;2023-05-19T06:49:46;8.23;;;2.30;;
7205;SDS011;3644;53.480;10.004;2023-05-19T06:52:18;4.90;;;2.40;;
7205;SDS011;3644;53.480;10.004;2023-05-19T06:54:45;9.67;;;2.73;;
7205;SDS011;3644;53.480;10.004;2023-05-19T06:57:10;5.30;;;2.50;;
7205;SDS011;3644;53.480;10.004;2023-05-19T06:59:36;11.90;;;2.77;;
7205;SDS011;3644;53.480;10.004;2023-05-19T07:02:04;11.43;;;2.23;;
7205;SDS011;3644;53.480;10.004;2023-05-19T07:04:29;9.50;;;2.10;;
7205;SDS011;3644;53.480;10.004;2023-05-19T07:06:55;7.70;;;2.10;;
7205;SDS011;3644;53.480;10.004;2023-05-19T07:09:20;5.30;;;2.47;;
7205;SDS011;3644;53.480;10.004;2023-05-19T07:11:46;6.53;;;2.20;;
7205;SDS011;3644;53.480;10.004;2023-05-19T07:14:11;9.77;;;2.20;;
7205;SDS011;3644;53.480;10.004;2023-05-19T07:16:37;5.87;;;2.10;;
7205;SDS011;3644;53.480;10.004;2023-05-19T07:19:02;7.33;;;3.00;;
7205;SDS011;3644;53.480;10.004;2023-05-19T07:21:28;11.20;;;3.80;;
7205;SDS011;3644;53.480;10.004;2023-05-19T07:23:53;11.70;;;2.13;;
7205;SDS011;3644;53.480;10.004;2023-05-19T07:26:19;9.93;;;2.03;;
7205;SDS011;3644;53.480;10.004;2023-05-19T07:28:44;6.87;;;2.20;;
7205;SDS011;3644;53.480;10.004;2023-05-19T07:31:10;4.63;;;2.40;;
7205;SDS011;3644;53.480;10.004;2023-05-19T07:33:35;5.23;;;2.07;;
7205;SDS011;3644;53.480;10.004;2023-05-19T07:36:01;9.47;;;2.03;;
7205;SDS011;3644;53.480;10.004;2023-05-19T07:38:27;9.30;;;2.27;;
7205;SDS011;3644;53.480;10.004;2023-05-19T07:40:52;5.80;;;1.77;;
7205;SDS011;3644;53.480;10.004;2023-05-19T07:43:18;4.10;;;1.80;;
7205;SDS011;3644;53.480;10.004;2023-05-19T07:45:43;8.80;;;2.40;;
7205;SDS011;3644;53.480;10.004;2023-05-19T07:48:09;2.80;;;1.70;;
7205;SDS011;3644;53.480;10.004;2023-05-19T07:50:34;9.83;;;2.70;;
7205;SDS011;3644;53.480;10.004;2023-05-19T07:53:00;4.70;;;1.50;;
7205;SDS011;3644;53.480;10.004;2023-05-19T07:55:26;5.57;;;1.83;;
7205;SDS011;3644;53.480;10.004;2023-05-19T07:57:51;8.60;;;1.90;;
7205;SDS011;3644;53.480;10.004;2023-05-19T08:00:17;11.83;;;3.30;;
7205;SDS011;3644;53.480;10.004;2023-05-19T08:02:43;12.10;;;2.30;;
7205;SDS011;3644;53.480;10.004;2023-05-19T08:05:09;4.23;;;1.50;;
7205;SDS011;3644;53.480;10.004;2023-05-19T08:07:35;5.83;;;2.10;;
7205;SDS011;3644;53.480;10.004;2023-05-19T08:10:01;11.70;;;2.20;;
7205;SDS011;3644;53.480;10.004;2023-05-19T08:12:27;9.33;;;3.10;;
7205;SDS011;3644;53.480;10.004;2023-05-19T08:14:52;6.63;;;2.10;;
7205;SDS011;3644;53.480;10.004;2023-05-19T08:17:18;3.40;;;1.50;;
7205;SDS011;3644;53.480;10.004;2023-05-19T08:19:43;11.50;;;1.77;;
7205;SDS011;3644;53.480;10.004;2023-05-19T08:22:09;5.00;;;2.10;;
7205;SDS011;3644;53.480;10.004;2023-05-19T08:24:34;5.57;;;1.93;;
7205;SDS011;3644;53.480;10.004;2023-05-19T08:27:00;8.10;;;2.40;;
7205;SDS011;3644;53.480;10.004;2023-05-19T08:29:26;4.10;;;2.30;;
7205;SDS011;3644;53.480;10.004;2023-05-19T08:31:51;9.07;;;1.50;;
7205;SDS011;3644;53.480;10.004;2023-05-19T08:34:17;2.97;;;1.40;;
7205;SDS011;3644;53.480;10.004;2023-05-19T08:36:43;6.43;;;1.73;;
7205;SDS011;3644;53.480;10.004;2023-05-19T08:39:09;7.37;;;1.97;;
7205;SDS011;3644;53.480;10.004;2023-05-19T08:41:35;8.60;;;2.20;;
7205;SDS011;3644;53.480;10.004;2023-05-19T08:44:01;2.40;;;1.40;;
7205;SDS011;3644;53.480;10.004;2023-05-19T08:46:28;7.87;;;1.90;;
7205;SDS011;3644;53.480;10.004;2023-05-19T08:48:57;4.10;;;1.93;;
7205;SDS011;3644;53.480;10.004;2023-05-19T08:54:05;9.60;;;3.20;;
7205;SDS011;3644;53.480;10.004;2023-05-19T08:56:36;10.23;;;1.67;;
7205;SDS011;3644;53.480;10.004;2023-05-19T08:59:03;10.70;;;1.57;;
7205;SDS011;3644;53.480;10.004;2023-05-19T09:01:28;10.20;;;2.43;;
7205;SDS011;3644;53.480;10.004;2023-05-19T09:03:55;6.10;;;1.60;;
7205;SDS011;3644;53.480;10.004;2023-05-19T09:06:21;6.40;;;1.70;;
7205;SDS011;3644;53.480;10.004;2023-05-19T09:08:47;9.70;;;2.57;;
7205;SDS011;3644;53.480;10.004;2023-05-19T09:11:12;7.40;;;2.50;;
7205;SDS011;3644;53.480;10.004;2023-05-19T09:13:38;10.43;;;2.07;;
7205;SDS011;3644;53.480;10.004;2023-05-19T09:16:04;5.43;;;1.67;;
7205;SDS011;3644;53.480;10.004;2023-05-19T09:18:30;3.30;;;2.03;;
7205;SDS011;3644;53.480;10.004;2023-05-19T09:20:56;5.67;;;2.10;;
7205;SDS011;3644;53.480;10.004;2023-05-19T09:23:32;5.27;;;1.67;;
7205;SDS011;3644;53.480;10.004;2023-05-19T09:26:02;6.20;;;2.83;;
7205;SDS011;3644;53.480;10.004;2023-05-19T09:28:31;4.37;;;1.70;;
7205;SDS011;3644;53.480;10.004;2023-05-19T09:33:32;6.27;;;2.47;;
7205;SDS011;3644;53.480;10.004;2023-05-19T09:35:58;10.53;;;1.40;;
7205;SDS011;3644;53.480;10.004;2023-05-19T09:38:24;5.80;;;1.57;;
7205;SDS011;3644;53.480;10.004;2023-05-19T09:40:51;7.33;;;1.63;;
7205;SDS011;3644;53.480;10.004;2023-05-19T09:43:17;2.70;;;1.33;;
7205;SDS011;3644;53.480;10.004;2023-05-19T09:45:43;7.80;;;1.80;;
7205;SDS011;3644;53.480;10.004;2023-05-19T09:48:08;10.83;;;2.07;;
7205;SDS011;3644;53.480;10.004;2023-05-19T09:50:34;4.10;;;1.83;;
7205;SDS011;3644;53.480;10.004;2023-05-19T09:53:01;9.70;;;1.90;;
7205;SDS011;3644;53.480;10.004;2023-05-19T09:55:28;2.17;;;1.50;;
7205;SDS011;3644;53.480;10.004;2023-05-19T09:57:54;19.93;;;3.17;;
7205;SDS011;3644;53.480;10.004;2023-05-19T10:00:25;9.10;;;2.10;;
7205;SDS011;3644;53.480;10.004;2023-05-19T10:02:51;7.53;;;2.13;;
7205;SDS011;3644;53.480;10.004;2023-05-19T10:05:17;2.93;;;1.33;;
7205;SDS011;3644;53.480;10.004;2023-05-19T10:07:53;5.40;;;1.53;;
7205;SDS011;3644;53.480;10.004;2023-05-19T10:10:20;4.30;;;2.10;;
7205;SDS011;3644;53.480;10.004;2023-05-19T10:12:46;9.63;;;1.23;;
7205;SDS011;3644;53.480;10.004;2023-05-19T10:15:14;3.60;;;1.73;;
7205;SDS011;3644;53.480;10.004;2023-05-19T10:17:41;3.17;;;1.17;;
7205;SDS011;3644;53.480;10.004;2023-05-19T10:20:08;5.43;;;2.10;;
7205;SDS011;3644;53.480;10.004;2023-05-19T10:22:41;2.70;;;1.47;;
7205;SDS011;3644;53.480;10.004;2023-05-19T10:25:08;3.90;;;1.63;;
7205;SDS011;3644;53.480;10.004;2023-05-19T10:27:36;11.47;;;3.47;;
7205;SDS011;3644;53.480;10.004;2023-05-19T10:30:08;8.10;;;1.67;;
7205;SDS011;3644;53.480;10.004;2023-05-19T10:32:38;18.90;;;2.20;;
7205;SDS011;3644;53.480;10.004;2023-05-19T10:35:14;8.90;;;2.77;;
7205;SDS011;3644;53.480;10.004;2023-05-19T10:37:58;2.10;;;1.33;;
7205;SDS011;3644;53.480;10.004;2023-05-19T10:40:40;3.80;;;1.33;;
7205;SDS011;3644;53.480;10.004;2023-05-19T10:43:45;2.80;;;1.17;;
7205;SDS011;3644;53.480;10.004;2023-05-19T10:46:26;5.40;;;1.67;;
7205;SDS011;3644;53.480;10.004;2023-05-19T10:48:52;8.00;;;1.67;;
7205;SDS011;3644;53.480;10.004;2023-05-19T10:51:18;2.40;;;1.80;;
7205;SDS011;3644;53.480;10.004;2023-05-19T10:53:43;12.40;;;1.87;;
7205;SDS011;3644;53.480;10.004;2023-05-19T10:56:32;8.43;;;1.53;;
7205;SDS011;3644;53.480;10.004;2023-05-19T10:59:00;9.57;;;2.10;;
7205;SDS011;3644;53.480;10.004;2023-05-19T11:01:30;3.30;;;1.73;;
7205;SDS011;3644;53.480;10.004;2023-05-19T11:04:01;6.70;;;1.90;;
7205;SDS011;3644;53.480;10.004;2023-05-19T11:06:30;4.43;;;1.50;;
7205;SDS011;3644;53.480;10.004;2023-05-19T11:09:01;5.63;;;1.40;;
7205;SDS011;3644;53.480;10.004;2023-05-19T11:11:48;5.70;;;1.90;;
7205;SDS011;3644;53.480;10.004;2023-05-19T11:14:19;3.53;;;1.30;;
7205;SDS011;3644;53.480;10.004;2023-05-19T11:16:47;3.03;;;1.23;;
7205;SDS011;3644;53.480;10.004;2023-05-19T11:19:37;1.83;;;1.40;;
7205;SDS011;3644;53.480;10.004;2023-05-19T11:22:09;5.50;;;1.77;;
7205;SDS011;3644;53.480;10.004;2023-05-19T11:24:42;7.40;;;1.73;;
7205;SDS011;3644;53.480;10.004;2023-05-19T11:27:25;7.10;;;1.77;;
7205;SDS011;3644;53.480;10.004;2023-05-19T11:29:56;4.17;;;1.70;;
7205;SDS011;3644;53.480;10.004;2023-05-19T11:32:44;5.40;;;1.63;;
7205;SDS011;3644;53.480;10.004;2023-05-19T11:35:11;5.60;;;1.67;;
7205;SDS011;3644;53.480;10.004;2023-05-19T11:37:38;3.97;;;1.40;;
7205;SDS011;3644;53.480;10.004;2023-05-19T11:40:05;9.27;;;1.63;;
7205;SDS011;3644;53.480;10.004;2023-05-19T11:42:32;2.90;;;1.70;;
7205;SDS011;3644;53.480;10.004;2023-05-19T11:44:59;4.20;;;1.67;;
7205;SDS011;3644;53.480;10.004;2023-05-19T11:47:25;2.30;;;1.40;;
7205;SDS011;3644;53.480;10.004;2023-05-19T11:49:52;2.47;;;1.37;;
7205;SDS011;3644;53.480;10.004;2023-05-19T11:52:21;9.63;;;1.67;;
7205;SDS011;3644;53.480;10.004;2023-05-19T11:54:48;3.40;;;1.53;;
7205;SDS011;3644;53.480;10.004;2023-05-19T11:57:14;3.93;;;1.33;;
7205;SDS011;3644;53.480;10.004;2023-05-19T11:59:40;4.53;;;1.90;;
7205;SDS011;3644;53.480;10.004;2023-05-19T12:02:19;2.93;;;1.80;;
7205;SDS011;3644;53.480;10.004;2023-05-19T12:04:46;4.40;;;1.60;;
7205;SDS011;3644;53.480;10.004;2023-05-19T12:07:14;8.23;;;1.27;;
7205;SDS011;3644;53.480;10.004;2023-05-19T12:09:44;3.13;;;2.30;;
7205;SDS011;3644;53.480;10.004;2023-05-19T12:12:17;6.17;;;1.60;;
7205;SDS011;3644;53.480;10.004;2023-05-19T12:14:50;3.07;;;1.20;;
7205;SDS011;3644;53.480;10.004;2023-05-19T12:17:17;3.13;;;1.30;;
7205;SDS011;3644;53.480;10.004;2023-05-19T12:19:44;5.90;;;2.03;;
7205;SDS011;3644;53.480;10.004;2023-05-19T12:22:14;4.00;;;1.50;;
7205;SDS011;3644;53.480;10.004;2023-05-19T12:24:41;5.00;;;1.47;;
7205;SDS011;3644;53.480;10.004;2023-05-19T12:27:17;6.17;;;1.90;;
7205;SDS011;3644;53.480;10.004;2023-05-19T12:29:50;1.70;;;1.40;;
7205;SDS011;3644;53.480;10.004;2023-05-19T12:32:17;2.53;;;1.13;;
7205;SDS011;3644;53.480;10.004;2023-05-19T12:34:43;4.00;;;1.20;;
7205;SDS011;3644;53.480;10.004;2023-05-19T12:37:09;4.53;;;1.07;;
7205;SDS011;3644;53.480;10.004;2023-05-19T12:39:35;7.40;;;1.77;;
7205;SDS011;3644;53.480;10.004;2023-05-19T12:42:01;2.50;;;1.47;;
7205;SDS011;3644;53.480;10.004;2023-05-19T12:44:28;2.00;;;1.53;;
7205;SDS011;3644;53.480;10.004;2023-05-19T12:46:55;6.20;;;1.60;;
7205;SDS011;3644;53.480;10.004;2023-05-19T12:49:22;3.00;;;1.40;;
7205;SDS011;3644;53.480;10.004;2023-05-19T12:51:51;3.43;;;1.27;;
7205;SDS011;3644;53.480;10.004;2023-05-19T12:54:18;9.60;;;2.00;;
7205;SDS011;3644;53.480;10.004;2023-05-19T12:56:53;4.50;;;1.93;;
7205;SDS011;3644;53.480;10.004;2023-05-19T12:59:24;4.20;;;1.70;;
7205;SDS011;3644;53.480;10.004;2023-05-19T13:01:54;2.73;;;1.50;;
7205;SDS011;3644;53.480;10.004;2023-05-19T13:04:20;4.90;;;1.70;;
7205;SDS011;3644;53.480;10.004;2023-05-19T13:06:46;2.83;;;1.33;;
7205;SDS011;3644;53.480;10.004;2023-05-19T13:09:13;3.20;;;1.57;;
7205;SDS011;3644;53.480;10.004;2023-05-19T13:11:39;3.00;;;1.30;;
7205;SDS011;3644;53.480;10.004;2023-05-19T13:14:07;4.23;;;1.50;;
7205;SDS011;3644;53.480;10.004;2023-05-19T13:16:33;7.23;;;2.03;;
7205;SDS011;3644;53.480;10.004;2023-05-19T13:18:59;3.43;;;1.27;;
7205;SDS011;3644;53.480;10.004;2023-05-19T13:21:24;3.80;;;1.33;;
7205;SDS011;3644;53.480;10.004;2023-05-19T13:23:50;4.97;;;1.60;;
7205;SDS011;3644;53.480;10.004;2023-05-19T13:26:17;2.57;;;1.33;;
7205;SDS011;3644;53.480;10.004;2023-05-19T13:28:42;7.67;;;2.20;;
7205;SDS011;3644;53.480;10.004;2023-05-19T13:31:08;2.80;;;1.67;;
7205;SDS011;3644;53.480;10.004;2023-05-19T13:33:33;6.33;;;2.27;;
7205;SDS011;3644;53.480;10.004;2023-05-19T13:35:59;3.97;;;1.70;;
7205;SDS011;3644;53.480;10.004;2023-05-19T13:38:24;2.90;;;1.40;;
7205;SDS011;3644;53.480;10.004;2023-05-19T13:40:50;6.10;;;2.10;;
7205;SDS011;3644;53.480;10.004;2023-05-19T13:43:15;3.70;;;1.33;;
7205;SDS011;3644;53.480;10.004;2023-05-19T13:45:41;4.67;;;1.47;;
7205;SDS011;3644;53.480;10.004;2023-05-19T13:48:08;5.10;;;1.93;;
7205;SDS011;3644;53.480;10.004;2023-05-19T13:50:35;5.10;;;1.60;;
7205;SDS011;3644;53.480;10.004;2023-05-19T13:53:01;4.43;;;1.50;;
7205;SDS011;3644;53.480;10.004;2023-05-19T13:55:27;4.77;;;1.30;;
7205;SDS011;3644;53.480;10.004;2023-05-19T13:57:53;5.47;;;1.50;;
7205;SDS011;3644;53.480;10.004;2023-05-19T14:00:19;9.60;;;2.10;;
7205;SDS011;3644;53.480;10.004;2023-05-19T14:02:45;5.63;;;2.20;;
7205;SDS011;3644;53.480;10.004;2023-05-19T14:05:10;4.83;;;1.60;;
7205;SDS011;3644;53.480;10.004;2023-05-19T14:07:36;2.83;;;1.23;;
7205;SDS011;3644;53.480;10.004;2023-05-19T14:10:02;4.87;;;1.87;;
7205;SDS011;3644;53.480;10.004;2023-05-19T14:12:30;6.03;;;1.87;;
7205;SDS011;3644;53.480;10.004;2023-05-19T14:14:56;1.73;;;1.40;;
7205;SDS011;3644;53.480;10.004;2023-05-19T14:17:21;7.00;;;1.63;;
7205;SDS011;3644;53.480;10.004;2023-05-19T14:19:47;4.97;;;1.40;;
7205;SDS011;3644;53.480;10.004;2023-05-19T14:22:12;2.27;;;1.60;;
7205;SDS011;3644;53.480;10.004;2023-05-19T14:24:38;2.67;;;1.70;;
7205;SDS011;3644;53.480;10.004;2023-05-19T14:27:04;4.57;;;1.43;;
7205;SDS011;3644;53.480;10.004;2023-05-19T14:29:29;6.27;;;2.43;;
7205;SDS011;3644;53.480;10.004;2023-05-19T14:31:55;3.77;;;1.80;;
7205;SDS011;3644;53.480;10.004;2023-05-19T14:34:21;2.77;;;1.40;;
7205;SDS011;3644;53.480;10.004;2023-05-19T14:36:46;1.60;;;1.50;;
7205;SDS011;3644;53.480;10.004;2023-05-19T14:39:12;6.83;;;1.63;;
7205;SDS011;3644;53.480;10.004;2023-05-19T14:41:38;6.50;;;1.40;;
7205;SDS011;3644;53.480;10.004;2023-05-19T14:44:03;6.50;;;1.60;;
7205;SDS011;3644;53.480;10.004;2023-05-19T14:46:29;6.57;;;1.40;;
7205;SDS011;3644;53.480;10.004;2023-05-19T14:48:55;5.97;;;1.70;;
7205;SDS011;3644;53.480;10.004;2023-05-19T14:51:20;1.93;;;1.17;;
7205;SDS011;3644;53.480;10.004;2023-05-19T14:53:46;3.77;;;2.10;;
7205;SDS011;3644;53.480;10.004;2023-05-19T14:56:14;3.80;;;1.70;;
7205;SDS011;3644;53.480;10.004;2023-05-19T14:58:39;5.47;;;1.33;;
7205;SDS011;3644;53.480;10.004;2023-05-19T15:01:05;1.93;;;1.20;;
7205;SDS011;3644;53.480;10.004;2023-05-19T15:03:30;3.03;;;1.47;;
7205;SDS011;3644;53.480;10.004;2023-05-19T15:05:56;6.40;;;1.43;;
7205;SDS011;3644;53.480;10.004;2023-05-19T15:08:21;3.07;;;1.20;;
7205;SDS011;3644;53.480;10.004;2023-05-19T15:10:47;4.17;;;2.00;;
7205;SDS011;3644;53.480;10.004;2023-05-19T15:13:13;3.60;;;1.53;;
7205;SDS011;3644;53.480;10.004;2023-05-19T15:15:40;1.37;;;1.27;;
7205;SDS011;3644;53.480;10.004;2023-05-19T15:18:05;12.73;;;2.17;;
7205;SDS011;3644;53.480;10.004;2023-05-19T15:20:30;6.50;;;2.50;;
7205;SDS011;3644;53.480;10.004;2023-05-19T15:22:56;3.30;;;1.70;;
7205;SDS011;3644;53.480;10.004;2023-05-19T15:25:21;1.83;;;1.17;;